Time;durP1;ratioP1;P1;durP2;ratioP2;P2;SDS_P1;SDS_P2;PMS_P1;PMS_P2;Temp;Humidity;BMP_temperature;BMP_pressure;BME280_temperature;BME280_humidity;BME280_pressure;Samples;Min_cycle;Max_cycle;Signal;HPM_P1;HPM_P2
2022/12/30 00:01:17;;;;;;;23.23;5.40;;;;;;;;;;5051362;28;20491;-66
2022/12/30 00:03:44;;;;;;;28.17;5.80;;;;;;;;;;5050844;28;20128;-66
2022/12/30 00:06:14;;;;;;;23.50;4.90;;;;;;;;;;5063012;28;20609;-66
2022/12/30 00:08:47;;;;;;;26.93;5.30;;;;;;;;;;5049716;28;20129;-66
2022/12/30 00:11:21;;;;;;;23.50;5.90;;;;;;;;;;5051145;28;20052;-66
2022/12/30 00:33:21;;;;;;;29.47;5.63;;;;;;;;;;5049839;28;20049;-66
2022/12/30 00:35:48;;;;;;;22.87;5.43;;;;;;;;;;5050505;28;20048;-66
2022/12/30 00:38:14;;;;;;;19.00;4.43;;;;;;;;;;5050615;28;20045;-66
2022/12/30 00:43:07;;;;;;;23.13;3.90;;;;;;;;;;5049016;28;20049;-66
2022/12/30 00:43:26;;;;;;;25.90;4.60;;;;;;;;;;5050467;28;20423;-66
2022/12/30 00:45:53;;;;;;;18.13;3.53;;;;;;;;;;5049297;28;20049;-66
2022/12/30 00:56:34;;;;;;;21.33;4.33;;;;;;;;;;5050040;28;20049;-66
2022/12/30 00:59:00;;;;;;;26.83;4.67;;;;;;;;;;5050137;28;20041;-66
2022/12/30 01:01:26;;;;;;;29.57;6.63;;;;;;;;;;5050242;28;20045;-66
2022/12/30 01:03:52;;;;;;;23.17;3.70;;;;;;;;;;5051546;28;20052;-66
2022/12/30 01:06:18;;;;;;;18.80;3.80;;;;;;;;;;5055823;28;20048;-66
2022/12/30 01:08:44;;;;;;;23.20;3.33;;;;;;;;;;5068445;28;20490;-66
2022/12/30 01:11:11;;;;;;;21.50;3.30;;;;;;;;;;5069930;28;20048;-66
2022/12/30 01:13:37;;;;;;;22.67;4.10;;;;;;;;;;5069335;28;20492;-66
2022/12/30 01:16:10;;;;;;;23.33;3.87;;;;;;;;;;5070241;28;20238;-66
2022/12/30 01:18:37;;;;;;;18.27;3.20;;;;;;;;;;5053523;28;20498;-66
2022/12/30 01:21:03;;;;;;;23.07;4.57;;;;;;;;;;5049432;28;20045;-66
2022/12/30 01:23:30;;;;;;;21.30;5.13;;;;;;;;;;5048652;28;20053;-66
2022/12/30 01:25:56;;;;;;;28.20;4.63;;;;;;;;;;5048601;28;20052;-66
2022/12/30 01:28:22;;;;;;;20.63;4.13;;;;;;;;;;5047973;28;20033;-66
2022/12/30 01:30:48;;;;;;;25.73;3.73;;;;;;;;;;5049476;28;20045;-66
2022/12/30 01:33:14;;;;;;;22.40;4.80;;;;;;;;;;5048586;28;20049;-66
2022/12/30 01:35:40;;;;;;;22.00;4.30;;;;;;;;;;5049364;28;20049;-66
2022/12/30 01:38:06;;;;;;;23.37;4.73;;;;;;;;;;5049178;28;20063;-66
2022/12/30 01:40:38;;;;;;;20.13;4.20;;;;;;;;;;5049302;28;20053;-66
2022/12/30 01:43:04;;;;;;;17.80;3.67;;;;;;;;;;5031704;28;20102;-67
2022/12/30 01:45:31;;;;;;;22.00;4.67;;;;;;;;;;5049255;28;20061;-66
2022/12/30 01:48:15;;;;;;;19.40;4.00;;;;;;;;;;5063581;28;20052;-67
2022/12/30 01:50:44;;;;;;;22.60;5.43;;;;;;;;;;5062979;28;20041;-66
2022/12/30 01:53:16;;;;;;;22.10;4.70;;;;;;;;;;5049046;28;20044;-66
2022/12/30 01:55:55;;;;;;;26.87;4.57;;;;;;;;;;5049455;28;20049;-66
2022/12/30 01:58:25;;;;;;;22.13;5.13;;;;;;;;;;5048625;28;20045;-66
2022/12/30 02:00:51;;;;;;;24.87;4.40;;;;;;;;;;5049073;28;20553;-66
2022/12/30 02:03:18;;;;;;;26.50;5.13;;;;;;;;;;5067897;28;20048;-66
2022/12/30 02:05:45;;;;;;;17.93;4.37;;;;;;;;;;5067439;28;20491;-66
2022/12/30 02:08:14;;;;;;;24.13;4.33;;;;;;;;;;5068783;28;20503;-66
2022/12/30 02:10:42;;;;;;;19.47;5.37;;;;;;;;;;5060696;28;20041;-66
2022/12/30 02:13:16;;;;;;;22.97;3.77;;;;;;;;;;5047245;28;20452;-66
2022/12/30 02:15:54;;;;;;;26.02;4.20;;;;;;;;;;5049302;28;20052;-66
2022/12/30 02:18:42;;;;;;;25.30;4.93;;;;;;;;;;5048557;28;20068;-66
2022/12/30 02:21:08;;;;;;;26.70;5.80;;;;;;;;;;5049408;28;20071;-66
2022/12/30 02:23:41;;;;;;;23.77;5.07;;;;;;;;;;5047326;28;20040;-67
2022/12/30 02:26:10;;;;;;;25.60;4.93;;;;;;;;;;5048185;28;20521;-66
2022/12/30 02:28:55;;;;;;;16.17;3.83;;;;;;;;;;5048191;28;20049;-66
2022/12/30 02:31:30;;;;;;;20.10;3.97;;;;;;;;;;5048615;28;20053;-66
2022/12/30 02:34:08;;;;;;;40.43;5.27;;;;;;;;;;5048812;28;20045;-66
2022/12/30 02:36:58;;;;;;;22.90;4.70;;;;;;;;;;5048190;28;20523;-66
2022/12/30 02:39:43;;;;;;;29.27;6.13;;;;;;;;;;5047900;28;20045;-66
2022/12/30 02:44:58;;;;;;;27.83;4.47;;;;;;;;;;5047941;28;20065;-66
2022/12/30 02:47:27;;;;;;;20.43;4.80;;;;;;;;;;5050037;28;20049;-66
2022/12/30 02:52:40;;;;;;;30.97;5.30;;;;;;;;;;5048713;28;20079;-66
2022/12/30 02:55:07;;;;;;;26.40;5.73;;;;;;;;;;5046881;28;20053;-66
2022/12/30 02:57:34;;;;;;;26.83;4.43;;;;;;;;;;5047939;28;20100;-66
2022/12/30 03:05:59;;;;;;;21.30;4.57;;;;;;;;;;5066475;28;20056;-66
2022/12/30 03:08:40;;;;;;;21.87;5.53;;;;;;;;;;5048395;28;20466;-66
2022/12/30 03:11:18;;;;;;;21.80;4.30;;;;;;;;;;5046705;28;20110;-66
2022/12/30 03:14:02;;;;;;;23.20;4.17;;;;;;;;;;5047819;28;20045;-66
2022/12/30 03:16:44;;;;;;;19.10;5.37;;;;;;;;;;5048243;28;20052;-66
2022/12/30 03:19:11;;;;;;;30.53;5.87;;;;;;;;;;5048056;28;20049;-66
2022/12/30 03:21:40;;;;;;;27.00;4.60;;;;;;;;;;5047132;28;20045;-66
2022/12/30 03:27:04;;;;;;;32.37;6.60;;;;;;;;;;5048202;28;20045;-67
2022/12/30 03:29:33;;;;;;;19.40;4.03;;;;;;;;;;5048251;28;20045;-66
2022/12/30 03:31:59;;;;;;;18.33;3.97;;;;;;;;;;5048617;28;20048;-66
2022/12/30 03:34:26;;;;;;;16.57;3.90;;;;;;;;;;5047676;28;20084;-66
2022/12/30 03:36:55;;;;;;;20.10;4.77;;;;;;;;;;5047339;28;20056;-66
2022/12/30 03:39:30;;;;;;;26.40;4.50;;;;;;;;;;5047057;28;20503;-66
2022/12/30 03:41:57;;;;;;;25.83;5.20;;;;;;;;;;5046996;28;20059;-66
2022/12/30 03:44:23;;;;;;;19.67;4.33;;;;;;;;;;5056759;28;20045;-66
2022/12/30 03:46:49;;;;;;;23.80;4.33;;;;;;;;;;5048126;28;20557;-66
2022/12/30 03:49:16;;;;;;;22.13;4.23;;;;;;;;;;5047718;28;20527;-66
2022/12/30 03:51:43;;;;;;;25.23;4.43;;;;;;;;;;5046885;28;20045;-66
2022/12/30 03:54:09;;;;;;;28.77;4.80;;;;;;;;;;5048085;28;20060;-66
2022/12/30 03:56:35;;;;;;;22.73;3.97;;;;;;;;;;5047808;28;20499;-66
2022/12/30 03:59:01;;;;;;;18.47;4.30;;;;;;;;;;5048414;28;20465;-66
2022/12/30 04:01:27;;;;;;;15.90;3.80;;;;;;;;;;5046441;28;20045;-66
2022/12/30 04:03:53;;;;;;;21.47;4.20;;;;;;;;;;5046358;28;20496;-66
2022/12/30 04:06:19;;;;;;;22.90;4.90;;;;;;;;;;5047728;28;20045;-66
2022/12/30 04:08:45;;;;;;;16.13;5.03;;;;;;;;;;5049910;28;20458;-67
2022/12/30 04:11:11;;;;;;;20.43;4.63;;;;;;;;;;5051603;28;20048;-66
2022/12/30 04:13:37;;;;;;;14.43;5.70;;;;;;;;;;5055803;28;20079;-67
2022/12/30 04:16:03;;;;;;;29.20;6.20;;;;;;;;;;5071342;28;20048;-67
2022/12/30 04:18:29;;;;;;;28.17;5.03;;;;;;;;;;5071040;28;20044;-66
2022/12/30 04:20:55;;;;;;;18.70;5.47;;;;;;;;;;5071525;28;20036;-66
2022/12/30 04:23:21;;;;;;;26.73;6.03;;;;;;;;;;5069536;28;20093;-66
2022/12/30 04:25:47;;;;;;;29.43;5.33;;;;;;;;;;5033211;28;20060;-66
2022/12/30 04:28:13;;;;;;;22.83;5.17;;;;;;;;;;5050628;28;20485;-66
2022/12/30 04:30:39;;;;;;;21.73;4.23;;;;;;;;;;5033075;28;20084;-66
2022/12/30 04:33:06;;;;;;;23.60;5.80;;;;;;;;;;5051146;28;20559;-66
2022/12/30 04:35:32;;;;;;;24.23;5.93;;;;;;;;;;5050481;28;20036;-66
2022/12/30 04:37:58;;;;;;;17.37;5.23;;;;;;;;;;5049268;28;20056;-66
2022/12/30 04:40:24;;;;;;;26.87;5.27;;;;;;;;;;5050581;28;20053;-66
2022/12/30 04:42:50;;;;;;;25.93;6.13;;;;;;;;;;5050839;28;20052;-67
2022/12/30 04:45:16;;;;;;;19.87;4.40;;;;;;;;;;5049525;28;20186;-66
2022/12/30 04:47:42;;;;;;;17.90;3.90;;;;;;;;;;5050576;28;20080;-66
2022/12/30 04:50:10;;;;;;;23.53;4.80;;;;;;;;;;5050257;28;20107;-66
2022/12/30 04:52:37;;;;;;;23.97;4.67;;;;;;;;;;5050597;28;20045;-67
2022/12/30 04:55:03;;;;;;;19.57;4.40;;;;;;;;;;5050801;28;20057;-67
2022/12/30 04:57:29;;;;;;;13.10;3.70;;;;;;;;;;5050509;28;20095;-66
2022/12/30 04:59:55;;;;;;;22.47;4.00;;;;;;;;;;5049100;28;20053;-67
2022/12/30 05:02:21;;;;;;;19.20;4.70;;;;;;;;;;5050787;28;20491;-66
2022/12/30 05:04:47;;;;;;;18.77;4.60;;;;;;;;;;5049187;28;20411;-67
2022/12/30 05:07:13;;;;;;;18.27;4.53;;;;;;;;;;5050660;28;20071;-66
2022/12/30 05:09:39;;;;;;;25.57;5.33;;;;;;;;;;5049535;28;20045;-67
2022/12/30 05:12:05;;;;;;;18.30;4.20;;;;;;;;;;5050793;28;20060;-66
2022/12/30 05:14:32;;;;;;;21.17;5.87;;;;;;;;;;5032529;28;20049;-67
2022/12/30 05:16:58;;;;;;;20.97;4.40;;;;;;;;;;5050332;28;20136;-67
2022/12/30 05:19:24;;;;;;;26.90;5.53;;;;;;;;;;5049919;28;20045;-66
2022/12/30 05:21:50;;;;;;;23.93;4.33;;;;;;;;;;5050096;28;20048;-66
2022/12/30 05:27:00;;;;;;;19.17;4.83;;;;;;;;;;5065239;28;20127;-66
2022/12/30 05:29:26;;;;;;;16.87;5.37;;;;;;;;;;5049986;28;20053;-66
2022/12/30 05:31:52;;;;;;;21.27;4.07;;;;;;;;;;5048590;28;20053;-67
2022/12/30 05:34:19;;;;;;;17.17;4.23;;;;;;;;;;5048570;28;20049;-66
2022/12/30 05:36:45;;;;;;;31.83;5.43;;;;;;;;;;5032044;28;20052;-67
2022/12/30 05:39:11;;;;;;;19.93;4.70;;;;;;;;;;5049437;28;20059;-67
2022/12/30 05:41:38;;;;;;;21.23;4.80;;;;;;;;;;5049364;28;20102;-66
2022/12/30 05:44:04;;;;;;;18.03;3.57;;;;;;;;;;5048431;28;20051;-66
2022/12/30 05:46:30;;;;;;;14.17;4.03;;;;;;;;;;5048911;28;20099;-67
2022/12/30 05:48:56;;;;;;;21.10;4.50;;;;;;;;;;5049245;28;20160;-67
2022/12/30 05:51:23;;;;;;;13.33;3.77;;;;;;;;;;5048388;28;20098;-67
2022/12/30 05:53:49;;;;;;;15.67;4.83;;;;;;;;;;5060854;28;20571;-66
2022/12/30 05:56:15;;;;;;;21.13;4.47;;;;;;;;;;5069406;28;20475;-67
2022/12/30 05:58:41;;;;;;;15.20;3.87;;;;;;;;;;5067707;28;20056;-66
2022/12/30 06:01:07;;;;;;;20.20;4.00;;;;;;;;;;5067208;28;20159;-66
2022/12/30 06:03:33;;;;;;;17.83;4.50;;;;;;;;;;5067254;28;20047;-67
2022/12/30 06:06:01;;;;;;;24.07;4.03;;;;;;;;;;5037744;28;20491;-67
2022/12/30 06:08:27;;;;;;;31.90;6.00;;;;;;;;;;5046473;28;20045;-66
2022/12/30 06:10:53;;;;;;;20.43;4.50;;;;;;;;;;5047286;28;20048;-66
2022/12/30 06:13:19;;;;;;;25.87;4.93;;;;;;;;;;5046323;28;20106;-66
2022/12/30 06:15:45;;;;;;;21.17;3.43;;;;;;;;;;5048317;28;20045;-66
2022/12/30 06:18:11;;;;;;;23.43;4.47;;;;;;;;;;5049054;28;20055;-67
2022/12/30 06:20:38;;;;;;;23.67;4.83;;;;;;;;;;5055851;28;20044;-67
2022/12/30 06:23:04;;;;;;;21.93;4.63;;;;;;;;;;5054535;28;20430;-67
2022/12/30 06:25:30;;;;;;;15.13;4.03;;;;;;;;;;5048885;28;20495;-67
2022/12/30 06:27:56;;;;;;;20.53;4.07;;;;;;;;;;5046242;28;20060;-67
2022/12/30 06:30:22;;;;;;;19.40;4.40;;;;;;;;;;5052293;28;20130;-66
2022/12/30 06:32:48;;;;;;;18.47;5.07;;;;;;;;;;5052637;28;20075;-67
2022/12/30 06:35:14;;;;;;;19.13;4.80;;;;;;;;;;5049191;28;20052;-66
2022/12/30 06:37:40;;;;;;;18.77;4.53;;;;;;;;;;5048749;28;20044;-67
2022/12/30 06:40:07;;;;;;;15.47;3.83;;;;;;;;;;5047093;28;20060;-67
2022/12/30 06:42:33;;;;;;;23.47;4.30;;;;;;;;;;5048402;28;20057;-67
2022/12/30 06:45:00;;;;;;;21.33;5.77;;;;;;;;;;5048428;28;20525;-67
2022/12/30 06:47:26;;;;;;;26.20;4.70;;;;;;;;;;5048058;28;20067;-67
2022/12/30 06:49:52;;;;;;;21.57;4.90;;;;;;;;;;5048231;28;20577;-66
2022/12/30 06:52:18;;;;;;;22.23;3.73;;;;;;;;;;5047281;28;20037;-66
2022/12/30 06:54:44;;;;;;;20.60;5.30;;;;;;;;;;5047854;28;20071;-67
2022/12/30 06:57:10;;;;;;;20.93;4.20;;;;;;;;;;5046852;28;20491;-66
2022/12/30 06:59:36;;;;;;;24.17;4.13;;;;;;;;;;5046753;28;20049;-66
2022/12/30 07:02:02;;;;;;;24.67;5.50;;;;;;;;;;5055180;28;20574;-66
2022/12/30 07:04:28;;;;;;;24.87;4.63;;;;;;;;;;5066746;28;20482;-66
2022/12/30 07:06:54;;;;;;;19.73;3.93;;;;;;;;;;5067151;28;20498;-67
2022/12/30 07:09:20;;;;;;;18.77;3.77;;;;;;;;;;5066148;28;20044;-66
2022/12/30 07:11:46;;;;;;;21.83;4.03;;;;;;;;;;5068375;28;20114;-67
2022/12/30 07:14:12;;;;;;;20.93;5.10;;;;;;;;;;5062161;28;20036;-66
2022/12/30 07:16:38;;;;;;;38.70;8.33;;;;;;;;;;5048277;28;20053;-66
2022/12/30 07:19:05;;;;;;;21.27;3.93;;;;;;;;;;5047519;28;20045;-66
2022/12/30 07:21:32;;;;;;;20.10;4.13;;;;;;;;;;5047882;28;20131;-66
2022/12/30 07:23:59;;;;;;;22.07;4.30;;;;;;;;;;5048096;28;20055;-67
2022/12/30 07:26:25;;;;;;;19.37;3.97;;;;;;;;;;5046386;28;20045;-67
2022/12/30 07:28:55;;;;;;;22.03;4.10;;;;;;;;;;5050881;28;20060;-66
2022/12/30 07:31:21;;;;;;;16.47;4.30;;;;;;;;;;5048018;28;20045;-67
2022/12/30 07:33:47;;;;;;;19.17;3.57;;;;;;;;;;5047594;28;20048;-67
2022/12/30 07:36:13;;;;;;;23.47;4.53;;;;;;;;;;5047525;28;20128;-66
2022/12/30 07:38:39;;;;;;;26.50;5.47;;;;;;;;;;5047916;28;20126;-66
2022/12/30 07:41:06;;;;;;;21.03;4.10;;;;;;;;;;5063164;28;20052;-67
2022/12/30 07:43:32;;;;;;;21.07;3.80;;;;;;;;;;5050631;28;20041;-67
2022/12/30 07:45:58;;;;;;;20.20;4.70;;;;;;;;;;5051814;28;20064;-66
2022/12/30 07:48:24;;;;;;;17.67;4.50;;;;;;;;;;5051607;28;20455;-66
2022/12/30 07:50:50;;;;;;;20.47;4.00;;;;;;;;;;5051704;28;20417;-67
2022/12/30 07:53:17;;;;;;;16.10;3.57;;;;;;;;;;5055987;28;20498;-67
2022/12/30 07:55:43;;;;;;;22.07;4.30;;;;;;;;;;5071137;28;20472;-67
2022/12/30 07:58:09;;;;;;;19.13;3.40;;;;;;;;;;5071224;28;20048;-67
2022/12/30 08:00:35;;;;;;;20.43;4.17;;;;;;;;;;5056064;28;20060;-66
2022/12/30 08:03:01;;;;;;;26.00;4.57;;;;;;;;;;5050664;28;20094;-67
2022/12/30 08:05:27;;;;;;;26.63;4.80;;;;;;;;;;5050935;28;20132;-67
2022/12/30 08:07:54;;;;;;;20.20;4.60;;;;;;;;;;5052097;28;20502;-67
2022/12/30 08:10:20;;;;;;;16.23;3.70;;;;;;;;;;5051933;28;20080;-67
2022/12/30 08:12:46;;;;;;;16.97;4.37;;;;;;;;;;5050742;28;20064;-67
2022/12/30 08:15:12;;;;;;;18.87;3.67;;;;;;;;;;5051012;28;20103;-67
2022/12/30 08:17:38;;;;;;;20.07;4.87;;;;;;;;;;5050917;28;20618;-66
2022/12/30 08:20:11;;;;;;;22.23;4.07;;;;;;;;;;5051005;28;20051;-67
2022/12/30 08:22:39;;;;;;;19.02;5.10;;;;;;;;;;5049091;28;20076;-66
2022/12/30 08:25:05;;;;;;;12.00;3.83;;;;;;;;;;5050283;28;20446;-66
2022/12/30 08:27:34;;;;;;;16.80;4.20;;;;;;;;;;5070407;28;20431;-66
2022/12/30 08:30:00;;;;;;;22.07;4.73;;;;;;;;;;5070772;28;20506;-67
2022/12/30 08:32:26;;;;;;;25.50;5.43;;;;;;;;;;5067681;28;20052;-67
2022/12/30 08:34:53;;;;;;;11.63;3.53;;;;;;;;;;5050324;28;20048;-66
2022/12/30 08:37:19;;;;;;;16.90;4.07;;;;;;;;;;5049293;28;20548;-67
2022/12/30 08:39:45;;;;;;;14.13;3.40;;;;;;;;;;5060338;28;20059;-66
2022/12/30 08:42:11;;;;;;;14.90;3.03;;;;;;;;;;5061112;28;20087;-67
2022/12/30 08:44:37;;;;;;;17.63;3.77;;;;;;;;;;5066038;28;20064;-67
2022/12/30 08:47:03;;;;;;;19.40;3.97;;;;;;;;;;5067858;28;20416;-66
2022/12/30 08:49:29;;;;;;;24.77;4.47;;;;;;;;;;5053462;28;20450;-67
2022/12/30 08:51:55;;;;;;;12.67;4.37;;;;;;;;;;5067046;28;20056;-67
2022/12/30 08:54:21;;;;;;;41.03;5.97;;;;;;;;;;5057999;28;20514;-66
2022/12/30 08:56:48;;;;;;;13.70;4.00;;;;;;;;;;5049674;28;20045;-67
2022/12/30 08:59:14;;;;;;;18.73;3.50;;;;;;;;;;5049250;28;20049;-66
2022/12/30 09:01:41;;;;;;;19.17;3.63;;;;;;;;;;5051972;28;20047;-67
2022/12/30 09:04:08;;;;;;;14.97;3.30;;;;;;;;;;5049625;28;20131;-67
2022/12/30 09:06:35;;;;;;;16.03;3.30;;;;;;;;;;5050132;28;20048;-66
2022/12/30 09:09:01;;;;;;;16.60;3.47;;;;;;;;;;5050089;28;20124;-67
2022/12/30 09:11:29;;;;;;;17.20;3.00;;;;;;;;;;5052888;28;20045;-67
2022/12/30 09:13:56;;;;;;;11.60;3.40;;;;;;;;;;5049776;28;20041;-66
2022/12/30 09:16:23;;;;;;;11.63;3.00;;;;;;;;;;5049990;28;20044;-67
2022/12/30 09:18:49;;;;;;;14.47;3.57;;;;;;;;;;5049570;28;20392;-66
2022/12/30 09:21:15;;;;;;;13.07;3.93;;;;;;;;;;5049695;28;20107;-67
2022/12/30 09:23:41;;;;;;;15.63;3.27;;;;;;;;;;5054459;28;20036;-66
2022/12/30 09:26:08;;;;;;;14.40;4.27;;;;;;;;;;5069634;28;20041;-67
2022/12/30 09:28:34;;;;;;;17.87;4.03;;;;;;;;;;5068257;28;20453;-67
2022/12/30 09:31:00;;;;;;;14.77;3.00;;;;;;;;;;5067984;28;20052;-67
2022/12/30 09:33:26;;;;;;;13.27;4.30;;;;;;;;;;5067795;28;20102;-67
2022/12/30 09:35:52;;;;;;;8.27;3.13;;;;;;;;;;5052524;28;20073;-66
2022/12/30 09:38:18;;;;;;;15.57;3.73;;;;;;;;;;5067597;28;20513;-66
2022/12/30 09:40:48;;;;;;;13.37;4.30;;;;;;;;;;5067762;28;20051;-67
2022/12/30 09:43:34;;;;;;;21.53;4.03;;;;;;;;;;5052420;28;20048;-66
2022/12/30 09:46:22;;;;;;;15.50;2.53;;;;;;;;;;5049021;28;20049;-66
2022/12/30 09:48:53;;;;;;;16.43;3.20;;;;;;;;;;5047267;28;20072;-66
2022/12/30 09:51:23;;;;;;;13.73;3.27;;;;;;;;;;5055996;28;20067;-66
2022/12/30 09:53:53;;;;;;;9.23;2.40;;;;;;;;;;5068026;28;20045;-66
2022/12/30 09:56:28;;;;;;;15.90;3.23;;;;;;;;;;5067465;28;20518;-66
2022/12/30 09:58:55;;;;;;;15.90;3.87;;;;;;;;;;5065071;28;20062;-67
2022/12/30 10:01:27;;;;;;;12.40;3.13;;;;;;;;;;5048604;28;20033;-67
2022/12/30 10:03:57;;;;;;;9.90;3.00;;;;;;;;;;5056212;28;20051;-66
2022/12/30 10:06:26;;;;;;;12.30;2.67;;;;;;;;;;5067320;28;20411;-67
2022/12/30 10:09:15;;;;;;;13.07;3.10;;;;;;;;;;5067448;28;20051;-66
2022/12/30 10:12:02;;;;;;;10.63;3.23;;;;;;;;;;5065936;28;20097;-66
2022/12/30 10:14:40;;;;;;;12.00;2.43;;;;;;;;;;5047434;28;20148;-66
2022/12/30 10:17:09;;;;;;;10.27;2.20;;;;;;;;;;5047540;28;20044;-66
2022/12/30 10:19:35;;;;;;;8.77;2.30;;;;;;;;;;5048457;28;20049;-66
2022/12/30 10:22:20;;;;;;;10.37;2.00;;;;;;;;;;5048070;28;20052;-66
2022/12/30 10:24:55;;;;;;;9.23;2.00;;;;;;;;;;5048518;28;20106;-66
2022/12/30 10:27:22;;;;;;;8.50;3.00;;;;;;;;;;5048186;28;20053;-66
2022/12/30 10:29:48;;;;;;;10.10;2.77;;;;;;;;;;5066026;28;20048;-66
2022/12/30 10:32:21;;;;;;;9.40;2.13;;;;;;;;;;5066633;28;20055;-66
2022/12/30 10:34:49;;;;;;;13.52;2.53;;;;;;;;;;5048300;28;20378;-66
2022/12/30 10:37:24;;;;;;;13.10;2.87;;;;;;;;;;5048272;28;20052;-66
2022/12/30 10:39:52;;;;;;;8.67;1.87;;;;;;;;;;5047290;28;20099;-66
2022/12/30 10:42:21;;;;;;;9.53;2.17;;;;;;;;;;5063578;28;20093;-66
2022/12/30 10:45:05;;;;;;;6.57;1.70;;;;;;;;;;5050231;28;20063;-66
2022/12/30 10:47:40;;;;;;;10.03;2.03;;;;;;;;;;5068000;28;20059;-66
2022/12/30 10:50:30;;;;;;;15.23;1.90;;;;;;;;;;5066156;28;20182;-66
2022/12/30 10:52:57;;;;;;;13.47;2.40;;;;;;;;;;5049882;28;20053;-66
2022/12/30 10:55:27;;;;;;;11.03;2.27;;;;;;;;;;5047099;28;20439;-66
2022/12/30 10:58:01;;;;;;;7.77;2.23;;;;;;;;;;5053524;28;20052;-66
2022/12/30 11:00:28;;;;;;;15.03;3.70;;;;;;;;;;5066734;28;20418;-66
2022/12/30 11:02:59;;;;;;;8.80;1.97;;;;;;;;;;5057759;28;20044;-66
2022/12/30 11:05:38;;;;;;;11.90;2.10;;;;;;;;;;5068093;28;20097;-66
2022/12/30 11:08:05;;;;;;;8.20;2.00;;;;;;;;;;5068069;28;20127;-66
2022/12/30 11:10:31;;;;;;;9.90;1.80;;;;;;;;;;5064125;28;20067;-65
2022/12/30 11:15:59;;;;;;;9.13;2.03;;;;;;;;;;5062707;28;20049;-65
2022/12/30 11:18:29;;;;;;;6.80;2.27;;;;;;;;;;5061237;28;20102;-65
2022/12/30 11:21:00;;;;;;;6.03;2.00;;;;;;;;;;5069554;28;20056;-66
2022/12/30 11:23:26;;;;;;;8.87;2.23;;;;;;;;;;5070845;28;20048;-66
2022/12/30 11:25:52;;;;;;;9.83;2.63;;;;;;;;;;5072010;28;20063;-65
2022/12/30 11:28:29;;;;;;;7.83;2.63;;;;;;;;;;5060372;28;20036;-66
2022/12/30 11:30:55;;;;;;;8.33;2.90;;;;;;;;;;5071369;28;20364;-65
2022/12/30 11:33:27;;;;;;;9.80;1.90;;;;;;;;;;5050768;28;20417;-66
2022/12/30 11:35:53;;;;;;;11.40;3.53;;;;;;;;;;5065269;28;20048;-65
2022/12/30 11:38:28;;;;;;;6.03;2.10;;;;;;;;;;5053920;28;20060;-65
2022/12/30 11:40:55;;;;;;;13.03;2.30;;;;;;;;;;5055333;28;20049;-65
2022/12/30 11:43:21;;;;;;;5.17;1.30;;;;;;;;;;5059471;28;20048;-65
2022/12/30 11:46:00;;;;;;;7.97;1.87;;;;;;;;;;5059628;28;20102;-65
2022/12/30 11:48:31;;;;;;;6.67;2.07;;;;;;;;;;5065034;28;20060;-65
2022/12/30 11:50:58;;;;;;;8.43;2.63;;;;;;;;;;5055460;28;20099;-65
2022/12/30 11:53:27;;;;;;;6.77;2.80;;;;;;;;;;5060021;28;20127;-65
2022/12/30 11:55:53;;;;;;;9.20;1.63;;;;;;;;;;5068483;28;20055;-65
2022/12/30 11:58:19;;;;;;;8.03;1.83;;;;;;;;;;5069594;28;20410;-65
2022/12/30 12:00:46;;;;;;;7.57;2.20;;;;;;;;;;5058150;28;20518;-65
2022/12/30 12:03:17;;;;;;;4.87;1.33;;;;;;;;;;5051439;28;20049;-65
2022/12/30 12:05:44;;;;;;;8.93;2.07;;;;;;;;;;5065616;28;20059;-65
2022/12/30 12:08:10;;;;;;;8.07;2.00;;;;;;;;;;5050087;28;20052;-65
2022/12/30 12:10:37;;;;;;;8.07;1.70;;;;;;;;;;5056659;28;20048;-65
2022/12/30 12:13:10;;;;;;;5.73;1.40;;;;;;;;;;5068208;28;20419;-65
2022/12/30 12:15:36;;;;;;;;;;;;;;;;;;5071556;28;20643;-65
2022/12/30 12:18:09;;;;;;;7.07;2.67;;;;;;;;;;5069029;28;19921;-65
2022/12/30 12:20:39;;;;;;;8.30;1.42;;;;;;;;;;5062140;28;20041;-65
2022/12/30 12:23:05;;;;;;;7.17;1.67;;;;;;;;;;5060893;28;20093;-66
2022/12/30 12:25:33;;;;;;;9.47;2.90;;;;;;;;;;5069652;28;20052;-65
2022/12/30 12:28:00;;;;;;;8.93;2.30;;;;;;;;;;5054161;28;20138;-65
2022/12/30 12:30:31;;;;;;;8.03;1.97;;;;;;;;;;5060129;28;20052;-64
2022/12/30 12:33:00;;;;;;;7.83;2.00;;;;;;;;;;5062231;28;20092;-65
2022/12/30 12:35:30;;;;;;;6.17;1.80;;;;;;;;;;5068989;28;20056;-65
2022/12/30 12:38:15;;;;;;;8.73;1.30;;;;;;;;;;5069465;28;20053;-65
2022/12/30 12:40:47;;;;;;;4.93;1.53;;;;;;;;;;5066320;28;20510;-65
2022/12/30 12:43:16;;;;;;;6.82;2.20;;;;;;;;;;5066933;28;20045;-65
2022/12/30 12:46:18;;;;;;;4.87;1.53;;;;;;;;;;5062314;28;20045;-65
2022/12/30 12:48:52;;;;;;;8.00;1.80;;;;;;;;;;4986112;28;20054;-65
2022/12/30 12:51:21;;;;;;;11.67;1.83;;;;;;;;;;5046536;28;20139;-65
2022/12/30 12:53:56;;;;;;;5.70;1.70;;;;;;;;;;5059757;28;20053;-65
2022/12/30 12:56:34;;;;;;;6.10;1.43;;;;;;;;;;5050355;28;20041;-64
2022/12/30 12:59:09;;;;;;;8.23;2.20;;;;;;;;;;5049628;28;20079;-65
2022/12/30 13:01:38;;;;;;;8.90;2.17;;;;;;;;;;5050746;28;20053;-65
2022/12/30 13:04:12;;;;;;;8.57;2.33;;;;;;;;;;5050622;28;20037;-65
2022/12/30 13:06:43;;;;;;;12.83;2.20;;;;;;;;;;5050831;28;20052;-65
2022/12/30 13:09:18;;;;;;;7.07;1.70;;;;;;;;;;5055435;28;20044;-65
2022/12/30 13:12:04;;;;;;;6.13;1.70;;;;;;;;;;5049000;28;20084;-64
2022/12/30 13:14:37;;;;;;;7.00;1.70;;;;;;;;;;5049066;28;20041;-65
2022/12/30 13:17:08;;;;;;;5.03;1.97;;;;;;;;;;5048940;28;20048;-65
2022/12/30 13:19:35;;;;;;;10.53;2.77;;;;;;;;;;5050444;28;20545;-64
2022/12/30 13:22:05;;;;;;;5.97;1.63;;;;;;;;;;5048417;28;20091;-64
2022/12/30 13:24:42;;;;;;;7.03;1.80;;;;;;;;;;5050192;28;20513;-64
2022/12/30 13:27:12;;;;;;;6.03;1.80;;;;;;;;;;5050083;28;20044;-65
2022/12/30 13:29:39;;;;;;;7.57;2.17;;;;;;;;;;5050237;28;20041;-65
2022/12/30 13:32:07;;;;;;;8.27;2.67;;;;;;;;;;5050040;28;20080;-65
2022/12/30 13:34:43;;;;;;;7.17;1.80;;;;;;;;;;5060328;28;20414;-64
2022/12/30 13:37:09;;;;;;;11.50;1.90;;;;;;;;;;5068750;28;20087;-65
2022/12/30 13:39:35;;;;;;;7.67;1.80;;;;;;;;;;5069628;28;20110;-64
2022/12/30 13:42:08;;;;;;;8.87;3.33;;;;;;;;;;5068598;28;20048;-65
2022/12/30 13:44:41;;;;;;;5.70;1.70;;;;;;;;;;5069239;28;20147;-64
2022/12/30 13:47:07;;;;;;;10.65;1.60;;;;;;;;;;5069557;28;20051;-64
2022/12/30 13:49:35;;;;;;;7.13;2.30;;;;;;;;;;5055779;28;20052;-64
2022/12/30 13:52:06;;;;;;;5.30;1.53;;;;;;;;;;5061336;28;20045;-65
2022/12/30 13:54:32;;;;;;;10.07;2.43;;;;;;;;;;5067496;28;20098;-65
2022/12/30 13:57:00;;;;;;;6.33;1.80;;;;;;;;;;5067701;28;20049;-65
2022/12/30 13:59:38;;;;;;;7.80;1.83;;;;;;;;;;5067650;28;20423;-65
2022/12/30 14:02:19;;;;;;;6.20;2.23;;;;;;;;;;5067061;28;20040;-65
2022/12/30 14:04:45;;;;;;;7.90;1.80;;;;;;;;;;5048786;28;20049;-65
2022/12/30 14:07:31;;;;;;;3.40;1.53;;;;;;;;;;5048845;28;20128;-65
2022/12/30 14:10:16;;;;;;;10.03;2.33;;;;;;;;;;5047825;28;20072;-65
2022/12/30 14:12:45;;;;;;;6.80;2.20;;;;;;;;;;5047514;28;20397;-65
2022/12/30 14:15:37;;;;;;;13.07;3.00;;;;;;;;;;5047030;28;20613;-65
2022/12/30 14:18:15;;;;;;;6.30;2.23;;;;;;;;;;5051204;28;20087;-66
2022/12/30 14:20:41;;;;;;;11.00;3.07;;;;;;;;;;5051797;28;20052;-65
2022/12/30 14:23:27;;;;;;;7.80;2.40;;;;;;;;;;5048404;28;20477;-65
2022/12/30 14:25:53;;;;;;;12.00;3.40;;;;;;;;;;5048646;28;20051;-65
2022/12/30 14:28:22;;;;;;;9.67;2.80;;;;;;;;;;5048741;28;20045;-65
2022/12/30 14:30:49;;;;;;;6.00;2.20;;;;;;;;;;5048333;28;20131;-65
2022/12/30 14:33:27;;;;;;;7.30;2.00;;;;;;;;;;5047955;28;20183;-65
2022/12/30 14:35:58;;;;;;;5.60;1.80;;;;;;;;;;5048417;28;20049;-65
2022/12/30 14:38:31;;;;;;;12.67;3.23;;;;;;;;;;5048592;28;20045;-65
2022/12/30 14:41:00;;;;;;;10.75;2.67;;;;;;;;;;5048115;28;20533;-65
2022/12/30 14:43:27;;;;;;;12.73;4.87;;;;;;;;;;5046801;28;20084;-66
2022/12/30 14:46:26;;;;;;;10.17;4.83;;;;;;;;;;5048165;28;20057;-65
2022/12/30 14:49:00;;;;;;;16.57;10.60;;;;;;;;;;5036019;28;20057;-65
2022/12/30 14:51:26;;;;;;;7.53;1.93;;;;;;;;;;5046231;28;20144;-65
2022/12/30 14:53:53;;;;;;;10.03;1.93;;;;;;;;;;5047761;28;20130;-65
2022/12/30 14:56:19;;;;;;;8.60;2.63;;;;;;;;;;5055408;28;20044;-65
2022/12/30 14:58:46;;;;;;;7.63;1.93;;;;;;;;;;5068172;28;20509;-66
2022/12/30 15:01:12;;;;;;;4.23;1.57;;;;;;;;;;5066292;28;20048;-66
2022/12/30 15:03:39;;;;;;;4.20;1.60;;;;;;;;;;5048222;28;20056;-65
2022/12/30 15:06:05;;;;;;;8.67;2.53;;;;;;;;;;5048103;28;20064;-66
2022/12/30 15:08:40;;;;;;;5.77;1.83;;;;;;;;;;5048018;28;20045;-65
2022/12/30 15:11:08;;;;;;;6.50;1.90;;;;;;;;;;5047765;28;20049;-65
2022/12/30 15:13:40;;;;;;;3.80;1.53;;;;;;;;;;5048025;28;20049;-65
2022/12/30 15:16:09;;;;;;;10.23;2.73;;;;;;;;;;5047608;28;20084;-65
2022/12/30 15:18:39;;;;;;;8.07;2.63;;;;;;;;;;5047764;28;20049;-66
2022/12/30 15:21:25;;;;;;;5.60;2.20;;;;;;;;;;5047929;28;20092;-66
2022/12/30 15:24:00;;;;;;;6.80;2.47;;;;;;;;;;5043500;28;20128;-66
2022/12/30 15:26:44;;;;;;;6.17;2.77;;;;;;;;;;5048112;28;20049;-66
2022/12/30 15:29:20;;;;;;;10.37;2.83;;;;;;;;;;5065969;28;20208;-66
2022/12/30 15:31:56;;;;;;;8.57;3.30;;;;;;;;;;5066483;28;20052;-66
2022/12/30 15:34:27;;;;;;;6.50;3.10;;;;;;;;;;5066608;28;20514;-66